createdAt,value
2022-12-20T00:01:31.019Z,99.90
2022-12-20T00:04:02.512Z,99.90
2022-12-20T00:06:30.027Z,99.90
2022-12-20T00:09:00.210Z,99.90
2022-12-20T00:11:28.779Z,99.90
2022-12-20T00:13:56.282Z,99.90
2022-12-20T00:16:27.942Z,99.90
2022-12-20T00:18:58.262Z,99.90
2022-12-20T00:21:26.013Z,99.90
2022-12-20T00:23:54.267Z,99.90
2022-12-20T00:26:28.628Z,99.90
2022-12-20T00:28:56.866Z,99.90
2022-12-20T00:31:25.720Z,99.90
2022-12-20T00:33:54.627Z,99.90
2022-12-20T00:36:23.328Z,99.90
2022-12-20T00:38:52.695Z,99.90
2022-12-20T00:41:22.691Z,99.90
2022-12-20T00:43:53.460Z,99.90
2022-12-20T00:46:23.781Z,99.90
2022-12-20T00:48:53.320Z,99.90
2022-12-20T00:51:26.407Z,99.90
2022-12-20T00:53:54.187Z,99.90
2022-12-20T00:56:21.889Z,99.90
2022-12-20T00:58:49.267Z,99.90
2022-12-20T01:01:30.514Z,99.90
2022-12-20T01:03:58.358Z,99.90
2022-12-20T01:06:26.090Z,99.90
2022-12-20T01:08:54.917Z,99.90
2022-12-20T01:11:24.736Z,99.90
2022-12-20T01:13:54.878Z,99.90
2022-12-20T01:16:30.643Z,99.90
2022-12-20T01:18:58.287Z,99.90
2022-12-20T01:21:26.555Z,99.90
2022-12-20T01:23:54.533Z,99.90
2022-12-20T01:26:23.714Z,99.90
2022-12-20T01:28:55.002Z,99.90
2022-12-20T01:31:23.009Z,99.90
2022-12-20T01:33:51.231Z,99.90
2022-12-20T01:36:27.156Z,99.90
2022-12-20T01:39:23.747Z,99.90
2022-12-20T01:41:50.877Z,99.90
2022-12-20T01:44:57.489Z,99.90
2022-12-20T01:47:26.872Z,99.90
2022-12-20T01:49:56.830Z,99.90
2022-12-20T01:52:36.855Z,99.90
2022-12-20T01:55:33.594Z,99.90
2022-12-20T01:58:05.150Z,99.90
2022-12-20T02:00:32.596Z,99.90
2022-12-20T02:03:04.130Z,99.90
2022-12-20T02:05:48.103Z,99.90
2022-12-20T02:08:18.789Z,99.90
2022-12-20T02:11:29.618Z,99.90
2022-12-20T02:14:28.010Z,99.90
2022-12-20T02:17:11.411Z,99.90
2022-12-20T02:20:33.169Z,99.90
2022-12-20T02:23:37.224Z,99.90
2022-12-20T02:26:46.953Z,99.90
2022-12-20T02:29:38.668Z,99.90
2022-12-20T02:32:22.552Z,99.90
2022-12-20T02:34:51.258Z,99.90
2022-12-20T02:37:18.582Z,99.90
2022-12-20T02:39:46.816Z,99.90
2022-12-20T02:42:18.804Z,99.90
2022-12-20T02:45:11.380Z,99.90
2022-12-20T02:48:03.125Z,99.90
2022-12-20T02:50:41.193Z,99.90
2022-12-20T02:53:09.398Z,99.90
2022-12-20T02:56:05.493Z,99.90
2022-12-20T02:59:07.621Z,99.90
2022-12-20T03:01:40.915Z,99.90
2022-12-20T03:04:08.992Z,99.90
2022-12-20T03:06:36.072Z,99.90
2022-12-20T03:09:03.658Z,99.90
2022-12-20T03:11:33.972Z,99.90
2022-12-20T03:14:01.123Z,99.90
2022-12-20T03:16:28.260Z,99.90
2022-12-20T03:18:55.657Z,99.90
2022-12-20T03:21:22.829Z,99.90
2022-12-20T03:23:49.903Z,99.90
2022-12-20T03:26:17.069Z,99.90
2022-12-20T03:28:48.696Z,99.90
2022-12-20T03:31:20.284Z,99.90
2022-12-20T03:33:51.879Z,99.90
2022-12-20T03:36:23.656Z,99.90
2022-12-20T03:38:55.865Z,99.90
2022-12-20T03:41:25.931Z,99.90
2022-12-20T03:43:53.408Z,99.90
2022-12-20T03:46:22.457Z,99.90
2022-12-20T03:48:49.858Z,99.90
2022-12-20T03:51:17.228Z,99.90
2022-12-20T03:53:45.451Z,99.90
2022-12-20T03:56:14.143Z,99.90
2022-12-20T03:58:43.012Z,99.90
2022-12-20T04:01:21.916Z,99.90
2022-12-20T04:03:51.247Z,99.90
2022-12-20T04:06:19.969Z,99.90
2022-12-20T04:08:47.467Z,99.90
2022-12-20T04:11:21.733Z,99.90
2022-12-20T04:14:02.103Z,99.90
2022-12-20T04:16:30.396Z,99.90
2022-12-20T04:18:57.794Z,99.90
2022-12-20T04:21:29.270Z,99.90
2022-12-20T04:23:59.607Z,99.90
2022-12-20T04:26:36.408Z,99.90
2022-12-20T04:29:04.830Z,99.90
2022-12-20T04:31:32.689Z,99.90
2022-12-20T04:34:00.571Z,99.90
2022-12-20T04:36:29.577Z,99.90
2022-12-20T04:38:59.009Z,99.90
2022-12-20T04:41:27.251Z,99.90
2022-12-20T04:44:03.261Z,99.90
2022-12-20T04:46:37.059Z,99.90
2022-12-20T04:49:06.724Z,99.90
2022-12-20T04:51:36.947Z,99.90
2022-12-20T04:54:05.689Z,99.90
2022-12-20T04:56:44.360Z,99.90
2022-12-20T04:59:16.115Z,99.90
2022-12-20T05:01:45.972Z,99.90
2022-12-20T05:04:17.888Z,99.90
2022-12-20T05:06:45.284Z,99.90
2022-12-20T05:09:12.947Z,99.90
2022-12-20T05:11:40.355Z,99.90
2022-12-20T05:14:09.054Z,99.90
2022-12-20T05:16:37.700Z,99.90
2022-12-20T05:19:06.506Z,99.90
2022-12-20T05:21:57.920Z,99.90
2022-12-20T05:24:43.773Z,99.90
2022-12-20T05:27:27.745Z,99.90
2022-12-20T05:29:55.363Z,99.90
2022-12-20T05:32:22.486Z,99.90
2022-12-20T05:34:49.930Z,99.90
2022-12-20T05:37:18.749Z,99.90
2022-12-20T05:39:46.991Z,99.90
2022-12-20T05:42:19.439Z,99.90
2022-12-20T05:44:50.072Z,99.90
2022-12-20T05:47:17.427Z,99.90
2022-12-20T05:49:44.799Z,99.90
2022-12-20T05:52:11.878Z,99.90
2022-12-20T05:54:41.156Z,99.90
2022-12-20T05:57:18.667Z,99.90
2022-12-20T05:59:47.191Z,99.90
2022-12-20T06:02:20.690Z,99.90
2022-12-20T06:04:51.713Z,99.90
2022-12-20T06:07:24.321Z,99.90
2022-12-20T06:09:56.942Z,99.90
2022-12-20T06:12:29.753Z,99.90
2022-12-20T06:14:57.432Z,99.90
2022-12-20T06:17:24.812Z,99.90
2022-12-20T06:19:53.259Z,99.90
2022-12-20T06:22:20.359Z,99.90
2022-12-20T06:24:55.445Z,99.90
2022-12-20T06:27:26.768Z,99.90
2022-12-20T06:30:06.439Z,99.90
2022-12-20T06:32:45.520Z,99.90
2022-12-20T06:35:14.745Z,99.90
2022-12-20T06:37:42.765Z,99.90
2022-12-20T06:40:11.631Z,99.90
2022-12-20T06:42:38.979Z,99.90
2022-12-20T06:45:08.179Z,99.90
2022-12-20T06:47:36.341Z,99.90
2022-12-20T06:50:05.670Z,99.90
2022-12-20T06:52:33.250Z,99.90
2022-12-20T06:55:00.516Z,99.90
2022-12-20T06:57:28.855Z,99.90
2022-12-20T06:59:56.674Z,99.90
2022-12-20T07:02:27.294Z,99.90
2022-12-20T07:04:54.868Z,99.90
2022-12-20T07:07:22.007Z,99.90
2022-12-20T07:09:49.172Z,99.90
2022-12-20T07:12:16.461Z,99.90
2022-12-20T07:14:43.645Z,99.90
2022-12-20T07:17:10.856Z,99.90
2022-12-20T07:19:38.153Z,99.90
2022-12-20T07:22:05.788Z,99.90
2022-12-20T07:24:34.480Z,99.90
2022-12-20T07:27:02.294Z,99.90
2022-12-20T07:29:29.507Z,99.90
2022-12-20T07:31:56.661Z,99.90
2022-12-20T07:34:24.062Z,99.90
2022-12-20T07:36:53.173Z,99.90
2022-12-20T07:39:20.376Z,99.90
2022-12-20T07:41:47.444Z,99.90
2022-12-20T07:44:16.989Z,99.90
2022-12-20T07:46:44.233Z,99.90
2022-12-20T07:49:11.317Z,99.90
2022-12-20T07:51:52.144Z,99.90
2022-12-20T07:54:33.585Z,99.90
2022-12-20T07:57:07.228Z,99.90
2022-12-20T07:59:41.871Z,99.90
2022-12-20T08:02:15.816Z,99.90
2022-12-20T08:04:44.018Z,99.90
2022-12-20T08:07:11.688Z,99.90
2022-12-20T08:09:42.551Z,99.90
2022-12-20T08:12:13.784Z,99.90
2022-12-20T08:14:41.485Z,99.90
2022-12-20T08:17:08.582Z,99.90
2022-12-20T08:19:35.729Z,99.90
2022-12-20T08:22:04.123Z,99.90
2022-12-20T08:24:31.445Z,99.90
2022-12-20T08:26:58.641Z,99.90
2022-12-20T08:29:25.825Z,99.90
2022-12-20T08:31:52.902Z,99.90
2022-12-20T08:34:20.196Z,99.90
2022-12-20T08:36:47.194Z,99.90
2022-12-20T08:39:14.345Z,99.90
2022-12-20T08:41:41.839Z,99.90
2022-12-20T08:44:10.375Z,99.90
2022-12-20T08:46:37.796Z,99.90
2022-12-20T08:49:05.545Z,99.90
2022-12-20T08:51:32.650Z,99.90
2022-12-20T08:54:00.019Z,99.90
2022-12-20T08:56:27.119Z,99.90
2022-12-20T08:58:54.425Z,99.90
2022-12-20T09:01:23.039Z,99.90
2022-12-20T09:03:50.435Z,99.90
2022-12-20T09:06:20.423Z,99.90
2022-12-20T09:08:48.897Z,99.90
2022-12-20T09:11:19.513Z,99.90
2022-12-20T09:13:48.457Z,99.90
2022-12-20T09:16:18.323Z,99.90
2022-12-20T09:18:49.302Z,99.90
2022-12-20T09:21:16.839Z,99.90
2022-12-20T09:23:43.867Z,99.90
2022-12-20T09:26:13.217Z,99.90
2022-12-20T09:28:40.868Z,99.90
2022-12-20T09:31:11.739Z,99.90
2022-12-20T09:33:39.381Z,99.90
2022-12-20T09:36:07.478Z,99.90
2022-12-20T09:38:34.602Z,99.90
2022-12-20T09:41:05.160Z,99.90
2022-12-20T09:43:33.205Z,99.90
2022-12-20T09:46:02.520Z,99.90
2022-12-20T09:48:33.770Z,99.90
2022-12-20T09:51:35.398Z,99.90
2022-12-20T09:54:33.333Z,99.90
2022-12-20T09:57:14.812Z,99.90
2022-12-20T09:59:49.299Z,99.90
2022-12-20T10:05:54.888Z,99.90
2022-12-20T10:08:46.641Z,99.90
2022-12-20T10:11:52.718Z,99.90
2022-12-20T10:15:13.565Z,99.90
2022-12-20T10:17:56.145Z,99.90
2022-12-20T10:20:59.170Z,99.90
2022-12-20T10:23:39.982Z,99.90
2022-12-20T10:26:12.170Z,99.90
2022-12-20T10:28:41.075Z,99.90
2022-12-20T10:31:13.705Z,99.90
2022-12-20T10:33:41.538Z,99.90
2022-12-20T10:36:27.168Z,99.90
2022-12-20T10:38:58.825Z,99.90
2022-12-20T10:41:32.351Z,99.90
2022-12-20T10:44:04.762Z,99.90
2022-12-20T10:46:44.133Z,99.90
2022-12-20T10:49:37.195Z,99.90
2022-12-20T10:52:13.283Z,99.90
2022-12-20T10:54:45.468Z,99.90
2022-12-20T10:57:33.036Z,99.90
2022-12-20T11:00:03.108Z,99.90
2022-12-20T11:02:42.156Z,99.90
2022-12-20T11:05:30.187Z,99.90
2022-12-20T11:10:48.457Z,99.90
2022-12-20T11:13:24.416Z,99.90
2022-12-20T11:15:57.042Z,99.90
2022-12-20T11:18:47.037Z,99.90
2022-12-20T11:21:35.059Z,99.90
2022-12-20T11:24:13.829Z,99.90
2022-12-20T11:27:00.741Z,99.90
2022-12-20T11:30:11.035Z,99.90
2022-12-20T11:33:15.971Z,99.90
2022-12-20T11:36:00.832Z,99.90
2022-12-20T11:38:50.469Z,99.90
2022-12-20T11:41:49.189Z,99.90
2022-12-20T11:45:06.662Z,99.90
2022-12-20T11:48:23.515Z,99.90
2022-12-20T11:51:26.263Z,99.90
2022-12-20T11:54:03.175Z,99.90
2022-12-20T11:56:44.806Z,99.90
2022-12-20T11:59:36.802Z,99.90
2022-12-20T12:02:28.080Z,94.20
2022-12-20T12:05:00.180Z,67.60
2022-12-20T12:07:32.954Z,55.10
2022-12-20T12:10:16.898Z,50.00
2022-12-20T12:12:51.603Z,46.60
2022-12-20T12:15:35.334Z,46.20
2022-12-20T12:18:13.940Z,45.60
2022-12-20T12:21:22.824Z,52.90
2022-12-20T12:24:26.811Z,67.70
2022-12-20T12:26:54.079Z,81.80
2022-12-20T12:29:22.208Z,91.80
2022-12-20T12:32:17.897Z,93.30
2022-12-20T12:35:33.762Z,90.80
2022-12-20T12:38:45.135Z,80.80
2022-12-20T12:42:01.737Z,72.20
2022-12-20T12:44:47.060Z,62.70
2022-12-20T12:47:23.717Z,58.00
2022-12-20T12:49:53.254Z,76.20
2022-12-20T12:52:49.561Z,85.30
2022-12-20T12:55:39.337Z,86.30
2022-12-20T12:59:05.393Z,87.40
2022-12-20T13:01:56.782Z,58.30
2022-12-20T13:04:29.876Z,44.50
2022-12-20T13:07:02.878Z,40.90
2022-12-20T13:09:41.009Z,40.20
2022-12-20T13:12:53.331Z,38.70
2022-12-20T13:15:50.760Z,38.30
2022-12-20T13:18:23.146Z,46.20
2022-12-20T13:21:44.855Z,55.90
2022-12-20T13:24:55.808Z,52.80
2022-12-20T13:27:43.470Z,54.50
2022-12-20T13:30:30.971Z,64.40
2022-12-20T13:33:15.749Z,49.40
2022-12-20T13:35:57.057Z,44.10
2022-12-20T13:38:53.391Z,52.60
2022-12-20T13:41:35.808Z,60.20
2022-12-20T13:44:36.360Z,56.90
2022-12-20T13:47:27.714Z,46.90
2022-12-20T13:49:54.834Z,48.30
2022-12-20T13:52:42.935Z,54.20
2022-12-20T13:55:25.133Z,69.10
2022-12-20T13:57:53.890Z,91.20
2022-12-20T14:00:26.434Z,81.90
2022-12-20T14:02:54.633Z,75.50
2022-12-20T14:05:27.375Z,61.40
2022-12-20T14:08:06.228Z,57.40
2022-12-20T14:10:35.363Z,49.90
2022-12-20T14:13:03.171Z,43.50
2022-12-20T14:15:35.090Z,43.70
2022-12-20T14:18:16.026Z,43.30
2022-12-20T14:20:44.468Z,43.10
2022-12-20T14:23:26.619Z,39.00
2022-12-20T14:25:59.965Z,36.70
2022-12-20T14:28:47.670Z,36.00
2022-12-20T14:31:45.027Z,34.60
2022-12-20T14:34:27.433Z,34.60
2022-12-20T14:37:35.480Z,33.80
2022-12-20T14:40:23.166Z,36.70
2022-12-20T14:42:50.372Z,37.70
2022-12-20T14:45:24.075Z,39.10
2022-12-20T14:48:16.217Z,39.00
2022-12-20T14:50:53.349Z,46.70
2022-12-20T14:53:28.899Z,51.50
2022-12-20T14:55:57.135Z,50.30
2022-12-20T14:58:33.496Z,47.40
2022-12-20T15:01:04.168Z,47.10
2022-12-20T15:03:31.505Z,47.20
2022-12-20T15:06:00.099Z,50.80
2022-12-20T15:08:29.838Z,55.60
2022-12-20T15:11:18.036Z,65.70
2022-12-20T15:13:54.621Z,75.70
2022-12-20T15:16:27.412Z,85.90
2022-12-20T15:19:00.345Z,89.90
2022-12-20T15:21:43.053Z,88.40
2022-12-20T15:24:25.892Z,86.40
2022-12-20T15:26:53.464Z,91.40
2022-12-20T15:29:23.323Z,92.60
2022-12-20T15:31:52.475Z,94.00
2022-12-20T15:34:29.161Z,94.90
2022-12-20T15:36:56.903Z,95.30
2022-12-20T15:39:24.820Z,98.10
2022-12-20T15:41:52.536Z,99.90
2022-12-20T15:44:24.680Z,99.90
2022-12-20T15:46:52.570Z,99.90
2022-12-20T15:49:29.831Z,99.90
2022-12-20T15:51:57.009Z,99.90
2022-12-20T15:54:30.609Z,99.90
2022-12-20T15:57:00.093Z,99.90
2022-12-20T16:02:29.317Z,99.90
2022-12-20T16:04:57.663Z,99.90
2022-12-20T16:07:25.040Z,99.90
2022-12-20T16:09:52.202Z,99.90
2022-12-20T16:12:26.811Z,99.90
2022-12-20T16:14:54.026Z,99.90
2022-12-20T16:17:21.161Z,99.90
2022-12-20T16:19:48.345Z,99.90
2022-12-20T16:22:17.849Z,99.90
2022-12-20T16:24:46.120Z,99.90
2022-12-20T16:27:13.264Z,99.90
2022-12-20T16:29:41.716Z,99.90
2022-12-20T16:32:19.976Z,99.90
2022-12-20T16:34:48.793Z,99.90
2022-12-20T16:37:16.197Z,99.90
2022-12-20T16:39:43.396Z,99.90
2022-12-20T16:42:22.442Z,99.90
2022-12-20T16:44:53.899Z,99.90
2022-12-20T16:47:21.819Z,99.90
2022-12-20T16:49:52.666Z,99.90
2022-12-20T16:52:22.330Z,99.90
2022-12-20T16:54:50.031Z,99.90
2022-12-20T16:57:17.159Z,99.90
2022-12-20T16:59:44.841Z,99.90
2022-12-20T17:02:33.344Z,99.90
2022-12-20T17:05:01.300Z,99.90
2022-12-20T17:07:28.353Z,99.90
2022-12-20T17:09:55.527Z,99.90
2022-12-20T17:12:23.107Z,99.90
2022-12-20T17:14:50.551Z,99.90
2022-12-20T17:17:17.927Z,99.90
2022-12-20T17:19:45.115Z,99.90
2022-12-20T17:24:57.121Z,99.90
2022-12-20T17:27:24.268Z,99.90
2022-12-20T17:29:52.279Z,99.90
2022-12-20T17:32:28.695Z,99.90
2022-12-20T17:34:57.010Z,99.90
2022-12-20T17:37:25.139Z,99.90
2022-12-20T17:39:52.431Z,99.90
2022-12-20T17:42:19.565Z,99.90
2022-12-20T17:44:46.710Z,99.90
2022-12-20T17:47:13.930Z,99.90
2022-12-20T17:49:41.103Z,99.90
2022-12-20T17:52:15.831Z,99.90
2022-12-20T17:54:43.084Z,99.90
2022-12-20T17:57:15.527Z,99.90
2022-12-20T17:59:43.095Z,99.90
2022-12-20T18:02:22.600Z,99.90
2022-12-20T18:04:50.567Z,99.90
2022-12-20T18:07:17.969Z,99.90
2022-12-20T18:09:47.891Z,99.90
2022-12-20T18:12:15.071Z,99.90
2022-12-20T18:14:42.158Z,99.90
2022-12-20T18:17:09.361Z,99.90
2022-12-20T18:19:36.654Z,99.90
2022-12-20T18:22:04.944Z,99.90
2022-12-20T18:24:32.176Z,99.90
2022-12-20T18:26:59.266Z,99.90
2022-12-20T18:29:26.395Z,99.90
2022-12-20T18:31:53.559Z,99.90
2022-12-20T18:34:20.757Z,99.90
2022-12-20T18:36:47.832Z,99.90
2022-12-20T18:39:15.225Z,99.90
2022-12-20T18:41:44.350Z,99.90
2022-12-20T18:44:11.991Z,99.90
2022-12-20T18:46:39.574Z,99.90
2022-12-20T18:49:06.984Z,99.90
2022-12-20T18:51:36.884Z,99.90
2022-12-20T18:54:06.571Z,99.90
2022-12-20T18:56:36.490Z,99.90
2022-12-20T18:59:10.896Z,99.90
2022-12-20T19:01:40.563Z,99.90
2022-12-20T19:04:08.657Z,99.90
2022-12-20T19:06:37.517Z,99.90
2022-12-20T19:09:07.462Z,99.90
2022-12-20T19:11:34.678Z,99.90
2022-12-20T19:14:01.791Z,99.90
2022-12-20T19:16:32.370Z,99.90
2022-12-20T19:19:01.472Z,99.90
2022-12-20T19:21:31.114Z,99.90
2022-12-20T19:24:00.691Z,99.90
2022-12-20T19:26:28.738Z,99.90
2022-12-20T19:28:57.011Z,99.90
2022-12-20T19:31:26.464Z,99.90
2022-12-20T19:34:07.731Z,99.90
2022-12-20T19:36:48.575Z,99.90
2022-12-20T19:39:20.661Z,99.90
2022-12-20T19:42:16.865Z,99.90
2022-12-20T19:44:35.682Z,99.90
2022-12-20T19:47:06.187Z,99.90
2022-12-20T19:49:35.541Z,99.90
2022-12-20T19:52:02.898Z,99.90
2022-12-20T19:54:30.044Z,99.90
2022-12-20T19:56:58.649Z,99.90
2022-12-20T19:59:30.827Z,99.90
2022-12-20T20:01:58.165Z,99.90
2022-12-20T20:04:25.365Z,99.90
2022-12-20T20:06:52.514Z,99.90
2022-12-20T20:09:19.669Z,99.90
2022-12-20T20:11:46.800Z,99.90
2022-12-20T20:14:14.434Z,99.90
2022-12-20T20:16:41.604Z,99.90
2022-12-20T20:19:09.711Z,99.90
2022-12-20T20:21:37.936Z,99.90
2022-12-20T20:24:05.839Z,99.90
2022-12-20T20:26:33.027Z,99.90
2022-12-20T20:29:01.988Z,99.90
2022-12-20T20:31:29.479Z,99.90
2022-12-20T20:33:58.105Z,99.90
2022-12-20T20:36:25.472Z,99.90
2022-12-20T20:38:52.743Z,99.90
2022-12-20T20:41:20.531Z,99.90
2022-12-20T20:43:48.125Z,99.90
2022-12-20T20:46:17.451Z,99.90
2022-12-20T20:48:45.212Z,99.90
2022-12-20T20:51:12.641Z,99.90
2022-12-20T20:53:39.819Z,99.90
2022-12-20T20:56:08.220Z,99.90
2022-12-20T20:58:35.912Z,99.90
2022-12-20T21:01:05.627Z,99.90
2022-12-20T21:03:32.964Z,99.90
2022-12-20T21:08:47.324Z,99.90
2022-12-20T21:11:14.673Z,99.90
2022-12-20T21:13:41.961Z,99.90
2022-12-20T21:16:14.504Z,99.90
2022-12-20T21:18:41.764Z,99.90
2022-12-20T21:21:10.752Z,99.90
2022-12-20T21:23:38.825Z,99.90
2022-12-20T21:26:07.728Z,99.90
2022-12-20T21:28:35.920Z,99.90
2022-12-20T21:31:05.598Z,99.90
2022-12-20T21:33:32.839Z,99.90
2022-12-20T21:36:08.575Z,99.90
2022-12-20T21:38:35.728Z,99.90
2022-12-20T21:41:04.825Z,99.90
2022-12-20T21:43:32.201Z,99.90
2022-12-20T21:45:59.801Z,99.90
2022-12-20T21:48:27.935Z,99.90
2022-12-20T21:51:03.326Z,99.90
2022-12-20T21:53:32.394Z,99.90
2022-12-20T21:56:00.503Z,99.90
2022-12-20T21:58:29.733Z,99.90
2022-12-20T22:00:57.576Z,99.90
2022-12-20T22:03:25.795Z,99.90
2022-12-20T22:05:55.828Z,99.90
2022-12-20T22:08:24.679Z,99.90
2022-12-20T22:11:04.107Z,99.90
2022-12-20T22:13:37.279Z,99.90
2022-12-20T22:16:17.445Z,99.90
2022-12-20T22:18:48.058Z,99.90
2022-12-20T22:21:15.845Z,99.90
2022-12-20T22:23:43.249Z,99.90
2022-12-20T22:26:13.168Z,99.90
2022-12-20T22:28:45.198Z,99.90
2022-12-20T22:31:12.443Z,99.90
2022-12-20T22:33:40.733Z,99.90
2022-12-20T22:36:09.019Z,99.90
2022-12-20T22:38:36.147Z,99.90
2022-12-20T22:41:30.305Z,99.90
2022-12-20T22:44:00.473Z,99.90
2022-12-20T22:46:29.593Z,99.90
2022-12-20T22:48:58.193Z,99.90
2022-12-20T22:51:27.483Z,99.90
2022-12-20T22:53:57.297Z,99.90
2022-12-20T22:56:24.418Z,99.90
2022-12-20T22:58:51.691Z,99.90
2022-12-20T23:01:20.510Z,99.90
2022-12-20T23:03:48.431Z,99.90
2022-12-20T23:06:18.295Z,99.90
2022-12-20T23:08:45.396Z,99.90
2022-12-20T23:11:38.896Z,99.90
2022-12-20T23:14:28.311Z,99.90
2022-12-20T23:16:55.470Z,99.90
2022-12-20T23:19:22.563Z,99.90
2022-12-20T23:22:08.410Z,99.90
2022-12-20T23:24:36.037Z,99.90
2022-12-20T23:27:03.453Z,99.90
2022-12-20T23:29:30.598Z,99.90
2022-12-20T23:31:57.734Z,99.90
2022-12-20T23:34:24.811Z,99.90
2022-12-20T23:36:52.011Z,99.90
2022-12-20T23:39:19.113Z,99.90
2022-12-20T23:41:46.439Z,99.90
2022-12-20T23:44:13.590Z,99.90
2022-12-20T23:46:40.625Z,99.90
2022-12-20T23:49:07.690Z,99.90
2022-12-20T23:51:34.760Z,99.90
2022-12-20T23:54:01.894Z,99.90
2022-12-20T23:56:28.940Z,99.90
2022-12-20T23:58:56.219Z,99.90
